Emma, Illinois
Current Conditions -  °F | °C
As of 6:55 AM on Friday 24 Oct 2014 (Local Time) from KCUL Reporting Station
Overcast Overcast  
Wind Chill: 51°   Ceiling: 3500
Heat Index: 51°   Visibility: 10mi
Dew Point: 50°   Wind: 0mph
Humidity: 95%   Direction: NA
Pressure: 30.11"   Gusts: NA
Location:  37.97°N, 88.12°W
Report Text: KCUL 241155Z AUTO 00000KT 10SM OVC035 11/10 A3011 RMK AO2 T01050098 10105 20068
Loading
Personal Weather Stations






























Interactive Weather Map
Tropical Storm Tracking
New forecast layout! Learn more

10-Day Weather Forecast

Advertisements
Track Severe Weather on mobile